createdAt,value
2023-05-25T00:01:01.701Z,41.65
2023-05-25T00:01:51.188Z,41.58
2023-05-25T00:02:51.365Z,41.45
2023-05-25T00:03:51.267Z,41.34
2023-05-25T00:04:51.207Z,41.25
2023-05-25T00:05:51.216Z,41.15
2023-05-25T00:06:51.212Z,41.06
2023-05-25T00:07:51.220Z,40.99
2023-05-25T00:08:51.238Z,40.91
2023-05-25T00:09:51.245Z,40.81
2023-05-25T00:10:51.265Z,40.74
2023-05-25T00:11:51.307Z,40.68
2023-05-25T00:12:51.257Z,40.59
2023-05-25T00:13:51.256Z,40.57
2023-05-25T00:14:51.265Z,40.49
2023-05-25T00:15:51.271Z,40.44
2023-05-25T00:16:51.304Z,40.39
2023-05-25T00:17:51.303Z,40.31
2023-05-25T00:18:51.300Z,40.28
2023-05-25T00:19:51.371Z,40.23
2023-05-25T00:20:51.313Z,40.22
2023-05-25T00:21:51.338Z,40.19
2023-05-25T00:22:51.336Z,40.14
2023-05-25T00:23:51.347Z,40.11
2023-05-25T00:24:51.360Z,40.07
2023-05-25T00:25:51.361Z,40.04
2023-05-25T00:26:51.384Z,40.04
2023-05-25T00:27:51.404Z,40.00
2023-05-25T00:28:51.384Z,39.98
2023-05-25T00:29:51.379Z,39.97
2023-05-25T00:30:51.437Z,39.96
2023-05-25T00:31:51.387Z,39.94
2023-05-25T00:32:51.415Z,39.92
2023-05-25T00:33:51.401Z,39.89
2023-05-25T00:34:51.406Z,39.88
2023-05-25T00:35:51.401Z,39.86
2023-05-25T00:36:51.430Z,39.85
2023-05-25T00:37:51.409Z,39.86
2023-05-25T00:38:51.434Z,39.83
2023-05-25T00:39:51.418Z,39.81
2023-05-25T00:40:51.416Z,39.82
2023-05-25T00:41:51.436Z,39.78
2023-05-25T00:42:51.432Z,39.77
2023-05-25T00:43:51.553Z,39.78
2023-05-25T00:44:51.442Z,39.75
2023-05-25T00:45:51.455Z,39.76
2023-05-25T00:46:51.572Z,39.74
2023-05-25T00:47:51.539Z,39.73
2023-05-25T00:48:51.491Z,39.71
2023-05-25T00:49:51.482Z,39.72
2023-05-25T00:50:51.491Z,39.70
2023-05-25T00:51:51.508Z,39.72
2023-05-25T00:52:51.515Z,39.70
2023-05-25T00:53:51.522Z,39.68
2023-05-25T00:54:51.531Z,39.68
2023-05-25T00:55:51.543Z,39.69
2023-05-25T00:56:51.577Z,39.67
2023-05-25T00:57:51.612Z,39.67
2023-05-25T00:58:51.751Z,39.67
2023-05-25T00:59:51.724Z,39.64
2023-05-25T01:00:51.717Z,39.66
2023-05-25T01:01:51.755Z,39.64
2023-05-25T01:02:51.832Z,39.65
2023-05-25T01:03:51.842Z,39.63
2023-05-25T01:04:51.803Z,39.64
2023-05-25T01:05:51.820Z,39.61
2023-05-25T01:06:51.860Z,39.62
2023-05-25T01:07:51.937Z,39.61
2023-05-25T01:08:51.926Z,39.63
2023-05-25T01:09:51.950Z,39.59
2023-05-25T01:10:51.975Z,39.61
2023-05-25T01:11:52.006Z,39.59
2023-05-25T01:12:52.019Z,39.60
2023-05-25T01:13:52.037Z,39.62
2023-05-25T01:14:52.064Z,39.59
2023-05-25T01:15:52.153Z,39.60
2023-05-25T01:16:52.212Z,39.59
2023-05-25T01:17:52.248Z,39.56
2023-05-25T01:18:52.767Z,39.57
2023-05-25T01:20:08.850Z,39.58
2023-05-25T01:20:52.705Z,39.57
2023-05-25T01:21:52.650Z,39.58
2023-05-25T01:22:52.650Z,39.58
2023-05-25T01:23:52.677Z,39.57
2023-05-25T01:24:52.658Z,39.57
2023-05-25T01:25:52.671Z,39.55
2023-05-25T01:26:52.655Z,39.54
2023-05-25T01:27:52.651Z,39.53
2023-05-25T01:28:52.670Z,39.52
2023-05-25T01:29:52.650Z,39.54
2023-05-25T01:30:52.663Z,39.51
2023-05-25T01:31:52.953Z,39.53
2023-05-25T01:32:52.721Z,39.54
2023-05-25T01:33:52.663Z,39.53
2023-05-25T01:34:52.659Z,39.52
2023-05-25T01:35:52.671Z,39.50
2023-05-25T01:36:52.650Z,39.51
2023-05-25T01:37:52.652Z,39.50
2023-05-25T01:38:52.658Z,39.52
2023-05-25T01:39:52.653Z,39.52
2023-05-25T01:40:52.653Z,39.50
2023-05-25T01:41:52.650Z,39.51
2023-05-25T01:42:52.652Z,39.51
2023-05-25T01:43:52.655Z,39.46
2023-05-25T01:44:52.653Z,39.52
2023-05-25T01:45:52.717Z,39.49
2023-05-25T01:46:52.650Z,39.48
2023-05-25T01:47:52.758Z,39.47
2023-05-25T01:48:52.648Z,39.50
2023-05-25T01:49:52.671Z,39.47
2023-05-25T01:50:52.644Z,39.48
2023-05-25T01:51:52.743Z,39.48
2023-05-25T01:52:52.649Z,39.48
2023-05-25T01:53:52.659Z,39.45
2023-05-25T01:54:52.674Z,39.45
2023-05-25T01:55:52.647Z,39.44
2023-05-25T01:56:52.654Z,39.44
2023-05-25T01:57:52.721Z,39.42
2023-05-25T01:58:52.651Z,39.47
2023-05-25T01:59:52.652Z,39.43
2023-05-25T02:00:52.657Z,39.45
2023-05-25T02:01:53.433Z,39.43
2023-05-25T02:02:52.785Z,39.41
2023-05-25T02:03:52.782Z,39.44
2023-05-25T02:04:52.656Z,39.44
2023-05-25T02:05:52.654Z,39.46
2023-05-25T02:06:52.727Z,39.42
2023-05-25T02:07:52.648Z,39.45
2023-05-25T02:08:52.658Z,39.42
2023-05-25T02:09:52.672Z,39.42
2023-05-25T02:10:52.663Z,39.41
2023-05-25T02:11:52.674Z,39.42
2023-05-25T02:12:52.689Z,39.44
2023-05-25T02:13:52.684Z,39.41
2023-05-25T02:14:52.691Z,39.41
2023-05-25T02:15:52.816Z,39.36
2023-05-25T02:16:52.720Z,39.42
2023-05-25T02:17:52.809Z,39.39
2023-05-25T02:18:52.766Z,39.39
2023-05-25T02:19:52.821Z,39.38
2023-05-25T02:20:52.782Z,39.39
2023-05-25T02:21:52.807Z,39.37
2023-05-25T02:22:52.810Z,39.40
2023-05-25T02:23:52.823Z,39.38
2023-05-25T02:24:52.848Z,39.36
2023-05-25T02:25:52.874Z,39.39
2023-05-25T02:26:52.894Z,39.40
2023-05-25T02:27:52.886Z,39.39
2023-05-25T02:28:52.905Z,39.38
2023-05-25T02:29:52.923Z,39.38
2023-05-25T02:30:53.586Z,39.36
2023-05-25T02:31:53.021Z,39.38
2023-05-25T02:32:53.025Z,39.39
2023-05-25T02:33:53.013Z,39.37
2023-05-25T02:34:53.035Z,39.38
2023-05-25T02:35:53.087Z,39.36
2023-05-25T02:36:53.056Z,39.37
2023-05-25T02:37:53.072Z,39.35
2023-05-25T02:38:53.085Z,39.36
2023-05-25T02:39:53.107Z,39.34
2023-05-25T02:40:53.123Z,39.35
2023-05-25T02:41:53.145Z,39.35
2023-05-25T02:42:53.558Z,39.33
2023-05-25T02:43:53.609Z,39.34
2023-05-25T02:44:53.604Z,39.34
2023-05-25T02:45:53.588Z,39.32
2023-05-25T02:46:53.632Z,39.33
2023-05-25T02:47:53.683Z,39.32
2023-05-25T02:48:53.589Z,39.31
2023-05-25T02:49:53.590Z,39.30
2023-05-25T02:50:53.586Z,39.34
2023-05-25T02:51:53.664Z,39.30
2023-05-25T02:52:53.592Z,39.31
2023-05-25T02:53:53.586Z,39.32
2023-05-25T02:54:53.596Z,39.36
2023-05-25T02:55:53.585Z,39.32
2023-05-25T02:56:53.600Z,39.30
2023-05-25T02:57:53.591Z,39.32
2023-05-25T02:58:53.605Z,39.32
2023-05-25T02:59:53.586Z,39.30
2023-05-25T03:00:53.593Z,39.29
2023-05-25T03:01:53.585Z,39.29
2023-05-25T03:02:53.631Z,39.31
2023-05-25T03:03:53.638Z,39.30
2023-05-25T03:04:53.655Z,39.31
2023-05-25T03:05:53.641Z,39.31
2023-05-25T03:06:53.665Z,39.29
2023-05-25T03:07:53.708Z,39.30
2023-05-25T03:08:53.718Z,39.32
2023-05-25T03:09:53.733Z,39.28
2023-05-25T03:10:53.746Z,39.28
2023-05-25T03:11:53.776Z,39.30
2023-05-25T03:12:53.791Z,39.27
2023-05-25T03:13:53.813Z,39.29
2023-05-25T03:14:53.825Z,39.29
2023-05-25T03:15:53.833Z,39.27
2023-05-25T03:16:54.423Z,39.26
2023-05-25T03:17:53.941Z,39.25
2023-05-25T03:18:53.886Z,39.28
2023-05-25T03:19:53.924Z,39.25
2023-05-25T03:20:53.924Z,39.25
2023-05-25T03:21:53.940Z,39.25
2023-05-25T03:22:53.998Z,39.24
2023-05-25T03:23:54.011Z,39.24
2023-05-25T03:24:54.005Z,39.27
2023-05-25T03:25:54.028Z,39.26
2023-05-25T03:26:54.056Z,39.25
2023-05-25T03:27:54.103Z,39.26
2023-05-25T03:28:54.589Z,39.26
2023-05-25T03:29:54.087Z,39.27
2023-05-25T03:30:54.116Z,39.26
2023-05-25T03:31:54.169Z,39.24
2023-05-25T03:32:54.186Z,39.23
2023-05-25T03:33:54.173Z,39.23
2023-05-25T03:34:54.199Z,39.22
2023-05-25T03:35:54.219Z,39.24
2023-05-25T03:36:54.280Z,39.25
2023-05-25T03:37:54.265Z,39.23
2023-05-25T03:38:54.312Z,39.21
2023-05-25T03:39:54.354Z,39.22
2023-05-25T03:40:54.339Z,39.22
2023-05-25T03:41:54.358Z,39.22
2023-05-25T03:42:54.382Z,39.20
2023-05-25T03:43:54.420Z,39.23
2023-05-25T03:44:54.429Z,39.21
2023-05-25T03:45:54.471Z,39.21
2023-05-25T03:46:54.476Z,39.24
2023-05-25T03:47:54.512Z,39.20
2023-05-25T03:48:54.521Z,39.21
2023-05-25T03:49:54.536Z,39.20
2023-05-25T03:50:54.560Z,39.21
2023-05-25T03:51:54.610Z,39.21
2023-05-25T03:52:54.616Z,39.22
2023-05-25T03:53:54.637Z,39.19
2023-05-25T03:54:54.665Z,39.16
2023-05-25T03:55:54.713Z,39.21
2023-05-25T03:56:54.707Z,39.17
2023-05-25T03:57:54.742Z,39.19
2023-05-25T03:58:54.792Z,39.18
2023-05-25T03:59:54.799Z,39.15
2023-05-25T04:00:54.816Z,39.14
2023-05-25T04:01:54.848Z,39.17
2023-05-25T04:02:54.921Z,39.17
2023-05-25T04:03:55.035Z,39.14
2023-05-25T04:04:54.983Z,39.14
2023-05-25T04:05:54.932Z,39.16
2023-05-25T04:06:54.959Z,39.18
2023-05-25T04:07:54.979Z,39.12
2023-05-25T04:08:55.001Z,39.14
2023-05-25T04:09:55.022Z,39.15
2023-05-25T04:10:55.042Z,39.14
2023-05-25T04:11:55.098Z,39.13
2023-05-25T04:12:55.080Z,39.14
2023-05-25T04:13:55.129Z,39.13
2023-05-25T04:14:55.130Z,39.13
2023-05-25T04:15:55.158Z,39.14
2023-05-25T04:16:55.178Z,39.12
2023-05-25T04:17:55.247Z,39.14
2023-05-25T04:18:55.220Z,39.14
2023-05-25T04:19:55.283Z,39.15
2023-05-25T04:20:55.270Z,39.16
2023-05-25T04:21:55.319Z,39.14
2023-05-25T04:22:55.312Z,39.11
2023-05-25T04:23:55.353Z,39.10
2023-05-25T04:24:55.363Z,39.07
2023-05-25T04:25:55.378Z,39.10
2023-05-25T04:26:55.394Z,39.09
2023-05-25T04:27:55.440Z,39.09
2023-05-25T04:28:55.451Z,39.07
2023-05-25T04:29:55.472Z,39.07
2023-05-25T04:30:55.467Z,39.07
2023-05-25T04:31:55.502Z,39.08
2023-05-25T04:32:55.580Z,39.06
2023-05-25T04:33:55.533Z,39.06
2023-05-25T04:34:55.548Z,39.05
2023-05-25T04:35:55.569Z,39.03
2023-05-25T04:36:55.590Z,39.02
2023-05-25T04:37:55.615Z,39.03
2023-05-25T04:38:55.642Z,39.05
2023-05-25T04:39:55.655Z,39.03
2023-05-25T04:40:55.680Z,38.99
2023-05-25T04:41:55.685Z,39.00
2023-05-25T04:42:55.702Z,38.99
2023-05-25T04:44:06.991Z,38.97
2023-05-25T04:44:55.811Z,38.96
2023-05-25T04:45:55.769Z,38.97
2023-05-25T04:46:55.761Z,38.96
2023-05-25T04:47:55.913Z,38.97
2023-05-25T04:48:55.770Z,38.95
2023-05-25T04:49:55.786Z,38.97
2023-05-25T04:50:55.802Z,38.99
2023-05-25T04:51:55.806Z,38.97
2023-05-25T04:52:55.812Z,38.98
2023-05-25T04:53:55.828Z,38.97
2023-05-25T04:54:55.832Z,38.95
2023-05-25T04:55:55.846Z,38.96
2023-05-25T04:56:55.848Z,38.99
2023-05-25T04:57:55.864Z,38.97
2023-05-25T04:58:55.873Z,38.94
2023-05-25T04:59:55.905Z,38.96
2023-05-25T05:00:55.912Z,38.98
2023-05-25T05:01:55.939Z,38.94
2023-05-25T05:02:56.007Z,38.95
2023-05-25T05:03:55.942Z,38.94
2023-05-25T05:04:55.894Z,38.94
2023-05-25T05:05:55.914Z,38.94
2023-05-25T05:06:58.060Z,38.90
2023-05-25T05:07:55.920Z,38.91
2023-05-25T05:08:55.913Z,38.91
2023-05-25T05:09:55.921Z,38.89
2023-05-25T05:10:55.918Z,38.89
2023-05-25T05:11:55.919Z,38.87
2023-05-25T05:12:55.931Z,38.85
2023-05-25T05:13:55.932Z,38.85
2023-05-25T05:14:55.929Z,38.87
2023-05-25T05:15:55.963Z,38.84
2023-05-25T05:16:55.991Z,38.85
2023-05-25T05:17:55.982Z,38.84
2023-05-25T05:18:55.955Z,38.84
2023-05-25T05:19:55.986Z,38.82
2023-05-25T05:20:55.967Z,38.78
2023-05-25T05:21:55.970Z,38.78
2023-05-25T05:22:55.977Z,38.82
2023-05-25T05:23:56.135Z,38.78
2023-05-25T05:24:56.000Z,38.80
2023-05-25T05:25:56.018Z,38.80
2023-05-25T05:26:58.977Z,38.76
2023-05-25T05:27:56.017Z,38.79
2023-05-25T05:28:56.030Z,38.77
2023-05-25T05:29:56.052Z,38.77
2023-05-25T05:30:56.035Z,38.75
2023-05-25T05:31:57.356Z,38.76
2023-05-25T05:32:56.117Z,38.75
2023-05-25T05:33:56.115Z,38.72
2023-05-25T05:34:56.094Z,38.75
2023-05-25T05:35:56.074Z,38.73
2023-05-25T05:36:58.591Z,38.75
2023-05-25T05:37:56.080Z,38.76
2023-05-25T05:38:56.105Z,38.75
2023-05-25T05:39:56.090Z,38.75
2023-05-25T05:40:56.091Z,38.74
2023-05-25T05:41:57.091Z,38.74
2023-05-25T05:42:56.101Z,38.73
2023-05-25T05:43:56.132Z,38.71
2023-05-25T05:44:56.143Z,38.70
2023-05-25T05:45:56.151Z,38.70
2023-05-25T05:46:56.248Z,38.70
2023-05-25T05:47:56.271Z,38.72
2023-05-25T05:48:56.643Z,38.72
2023-05-25T05:49:56.204Z,38.71
2023-05-25T05:50:56.211Z,38.70
2023-05-25T05:52:03.697Z,38.72
2023-05-25T05:52:56.285Z,38.70
2023-05-25T05:53:57.639Z,38.72
2023-05-25T05:55:59.472Z,38.69
2023-05-25T05:57:28.081Z,38.72
2023-05-25T05:57:59.527Z,38.72
2023-05-25T05:58:59.865Z,38.70
2023-05-25T05:59:59.503Z,38.71
2023-05-25T06:01:04.089Z,38.70
2023-05-25T06:02:12.005Z,38.70
2023-05-25T06:02:56.565Z,38.70
2023-05-25T06:03:59.926Z,38.69
2023-05-25T06:04:56.316Z,38.69
2023-05-25T06:07:03.760Z,38.69
2023-05-25T06:07:56.328Z,38.70
2023-05-25T06:08:56.322Z,38.66
2023-05-25T06:10:59.555Z,38.67
2023-05-25T06:11:59.570Z,38.69
2023-05-25T06:12:56.339Z,38.66
2023-05-25T06:13:56.365Z,38.66
2023-05-25T06:15:12.083Z,38.66
2023-05-25T06:15:59.595Z,38.68
2023-05-25T06:16:56.717Z,38.67
2023-05-25T06:17:56.412Z,38.63
2023-05-25T06:18:56.400Z,38.68
2023-05-25T06:20:03.886Z,38.62
2023-05-25T06:21:03.819Z,38.65
2023-05-25T06:22:03.882Z,38.67
2023-05-25T06:23:03.923Z,38.63
2023-05-25T06:23:56.652Z,38.64
2023-05-25T06:25:12.097Z,38.66
2023-05-25T06:25:56.472Z,38.68
2023-05-25T06:26:57.463Z,38.67
2023-05-25T06:27:56.493Z,38.63
2023-05-25T06:29:59.691Z,38.63
2023-05-25T06:30:56.506Z,38.66
2023-05-25T06:31:56.712Z,38.60
2023-05-25T06:32:56.514Z,38.62
2023-05-25T06:33:56.543Z,38.60
2023-05-25T06:34:56.520Z,38.60
2023-05-25T06:35:58.250Z,38.60
2023-05-25T06:36:56.543Z,38.60
2023-05-25T06:37:56.537Z,38.61
2023-05-25T06:38:56.659Z,38.62
2023-05-25T06:39:57.791Z,38.59
2023-05-25T06:40:57.665Z,38.60
2023-05-25T06:41:57.722Z,38.59
2023-05-25T06:43:03.986Z,38.60
2023-05-25T06:43:56.671Z,38.60
2023-05-25T06:44:56.608Z,38.59
2023-05-25T06:45:56.817Z,38.58
2023-05-25T06:46:56.617Z,38.60
2023-05-25T06:47:56.654Z,38.58
2023-05-25T06:48:56.668Z,38.57
2023-05-25T06:49:56.668Z,38.57
2023-05-25T06:50:56.636Z,38.56
2023-05-25T06:51:56.683Z,38.56
2023-05-25T06:53:12.317Z,38.56
2023-05-25T06:53:59.867Z,38.58
2023-05-25T06:54:59.875Z,38.60
2023-05-25T06:55:56.673Z,38.58
2023-05-25T06:56:56.670Z,38.57
2023-05-25T06:57:56.692Z,38.58
2023-05-25T06:59:00.375Z,38.57
2023-05-25T06:59:56.692Z,38.58
2023-05-25T07:00:56.677Z,38.56
2023-05-25T07:01:56.704Z,38.55
2023-05-25T07:02:56.695Z,38.55
2023-05-25T07:03:57.167Z,38.54
2023-05-25T07:04:56.719Z,38.53
2023-05-25T07:05:56.709Z,38.53
2023-05-25T07:07:04.165Z,38.54
2023-05-25T07:07:56.720Z,38.53
2023-05-25T07:08:56.733Z,38.53
2023-05-25T07:09:56.720Z,38.53
2023-05-25T07:10:56.714Z,38.54
2023-05-25T07:11:56.727Z,38.53
2023-05-25T07:12:57.678Z,38.53
2023-05-25T07:13:56.725Z,38.51
2023-05-25T07:14:56.753Z,38.51
2023-05-25T07:16:12.390Z,38.53
2023-05-25T07:16:56.745Z,38.53
2023-05-25T07:17:56.893Z,38.53
2023-05-25T07:18:57.494Z,38.49
2023-05-25T07:19:56.799Z,38.54
2023-05-25T07:20:56.772Z,38.50
2023-05-25T07:21:56.818Z,38.50
2023-05-25T07:22:58.700Z,38.49
2023-05-25T07:23:59.978Z,38.52
2023-05-25T07:24:56.855Z,38.50
2023-05-25T07:25:57.183Z,38.51
2023-05-25T07:26:56.792Z,38.50
2023-05-25T07:28:04.190Z,38.50
2023-05-25T07:28:58.199Z,38.50
2023-05-25T07:29:56.806Z,38.50
2023-05-25T07:30:56.831Z,38.51
2023-05-25T07:31:56.841Z,38.47
2023-05-25T07:32:56.917Z,38.45
2023-05-25T07:33:58.703Z,38.47
2023-05-25T07:34:57.822Z,38.48
2023-05-25T07:36:12.506Z,38.48
2023-05-25T07:37:12.641Z,38.49
2023-05-25T07:37:56.849Z,38.48
2023-05-25T07:39:00.411Z,38.46
2023-05-25T07:40:04.254Z,38.49
2023-05-25T07:41:00.118Z,38.49
2023-05-25T07:41:56.858Z,38.48
2023-05-25T07:42:57.210Z,38.47
2023-05-25T07:43:56.869Z,38.49
2023-05-25T07:44:56.869Z,38.43
2023-05-25T07:45:56.883Z,38.45
2023-05-25T07:46:56.959Z,38.45
2023-05-25T07:47:57.263Z,38.42
2023-05-25T07:49:12.498Z,38.45
2023-05-25T07:49:57.898Z,38.46
2023-05-25T07:50:56.960Z,38.45
2023-05-25T07:51:56.927Z,38.44
2023-05-25T07:52:57.202Z,38.42
2023-05-25T07:53:56.892Z,38.41
2023-05-25T07:54:56.956Z,38.42
2023-05-25T07:55:56.907Z,38.43
2023-05-25T07:57:04.310Z,38.40
2023-05-25T07:57:57.209Z,38.44
2023-05-25T07:58:56.926Z,38.41
2023-05-25T08:00:00.205Z,38.42
2023-05-25T08:00:57.228Z,38.46
2023-05-25T08:01:57.035Z,38.44
2023-05-25T08:02:57.092Z,38.46
2023-05-25T08:03:57.023Z,38.50
2023-05-25T08:04:57.231Z,38.47
2023-05-25T08:05:56.928Z,38.47
2023-05-25T08:06:56.950Z,38.48
2023-05-25T08:07:57.207Z,38.47
2023-05-25T08:08:57.200Z,38.50
2023-05-25T08:09:56.964Z,38.51
2023-05-25T08:10:58.250Z,38.50
2023-05-25T08:12:07.634Z,38.47
2023-05-25T08:12:58.338Z,38.48
2023-05-25T08:13:57.204Z,38.52
2023-05-25T08:14:57.147Z,38.55
2023-05-25T08:15:57.145Z,38.50
2023-05-25T08:16:57.216Z,38.51
2023-05-25T08:17:57.234Z,38.50
2023-05-25T08:18:57.147Z,38.51
2023-05-25T08:19:57.149Z,38.52
2023-05-25T08:20:57.152Z,38.55
2023-05-25T08:21:57.147Z,38.53
2023-05-25T08:22:57.189Z,38.54
2023-05-25T08:23:57.206Z,38.53
2023-05-25T08:24:57.173Z,38.54
2023-05-25T08:25:57.163Z,38.52
2023-05-25T08:26:57.207Z,38.51
2023-05-25T08:27:57.202Z,38.51
2023-05-25T08:28:57.173Z,38.51
2023-05-25T08:29:57.185Z,38.52
2023-05-25T08:30:57.213Z,38.51
2023-05-25T08:31:57.200Z,38.56
2023-05-25T08:32:57.325Z,38.55
2023-05-25T08:33:57.706Z,38.55
2023-05-25T08:34:57.691Z,38.58
2023-05-25T08:35:57.699Z,38.57
2023-05-25T08:36:57.706Z,38.56
2023-05-25T08:37:58.204Z,38.55
2023-05-25T08:38:58.203Z,38.54
2023-05-25T08:39:57.703Z,38.54
2023-05-25T08:41:00.886Z,38.50
2023-05-25T08:41:57.712Z,38.51
2023-05-25T08:42:57.734Z,38.54
2023-05-25T08:43:58.209Z,38.57
2023-05-25T08:44:57.705Z,38.53
2023-05-25T08:46:02.439Z,38.56
2023-05-25T08:46:59.770Z,38.59
2023-05-25T08:47:57.781Z,38.60
2023-05-25T08:48:58.405Z,38.58
2023-05-25T08:49:57.737Z,38.58
2023-05-25T08:50:57.711Z,38.58
2023-05-25T08:51:58.210Z,38.61
2023-05-25T08:52:57.726Z,38.70
2023-05-25T08:53:57.713Z,38.65
2023-05-25T08:54:57.721Z,38.66
2023-05-25T08:55:57.662Z,38.62
2023-05-25T08:56:57.711Z,38.58
2023-05-25T08:57:57.714Z,38.67
2023-05-25T08:58:58.004Z,38.65
2023-05-25T08:59:57.723Z,38.66
2023-05-25T09:00:58.216Z,38.63
2023-05-25T09:01:57.889Z,38.62
2023-05-25T09:02:57.992Z,38.71
2023-05-25T09:03:57.972Z,38.61
2023-05-25T09:04:57.985Z,38.60
2023-05-25T09:05:58.217Z,38.60
2023-05-25T09:07:09.629Z,38.58
2023-05-25T09:07:58.098Z,38.68
2023-05-25T09:08:58.092Z,38.61
2023-05-25T09:09:58.828Z,38.67
2023-05-25T09:10:58.223Z,38.62
2023-05-25T09:11:58.653Z,38.69
2023-05-25T09:12:58.240Z,38.72
2023-05-25T09:13:58.102Z,38.71
2023-05-25T09:14:58.114Z,38.64
2023-05-25T09:15:58.196Z,38.73
2023-05-25T09:16:58.153Z,38.60
2023-05-25T09:17:58.360Z,38.64
2023-05-25T09:18:58.087Z,38.61
2023-05-25T09:19:58.140Z,38.65
2023-05-25T09:20:58.331Z,38.61
2023-05-25T09:22:10.681Z,38.61
2023-05-25T09:22:58.222Z,38.59
2023-05-25T09:23:58.087Z,38.58
2023-05-25T09:24:58.099Z,38.59
2023-05-25T09:25:58.219Z,38.55
2023-05-25T09:26:58.105Z,38.57
2023-05-25T09:27:58.128Z,38.55
2023-05-25T09:28:58.098Z,38.55
2023-05-25T09:29:59.293Z,38.55
2023-05-25T09:31:05.536Z,38.53
2023-05-25T09:31:58.112Z,38.51
2023-05-25T09:32:58.154Z,38.54
2023-05-25T09:33:58.106Z,38.53
2023-05-25T09:35:13.974Z,38.55
2023-05-25T09:35:59.097Z,38.54
2023-05-25T09:37:01.651Z,38.53
2023-05-25T09:37:58.240Z,38.53
2023-05-25T09:38:58.700Z,38.54
2023-05-25T09:39:58.098Z,38.56
2023-05-25T09:40:58.105Z,38.56
2023-05-25T09:41:58.258Z,38.51
2023-05-25T09:42:58.114Z,38.56
2023-05-25T09:44:10.408Z,38.54
2023-05-25T09:44:58.093Z,38.57
2023-05-25T09:46:01.327Z,38.54
2023-05-25T09:46:58.335Z,38.55
2023-05-25T09:47:58.268Z,38.55
2023-05-25T09:48:58.104Z,38.52
2023-05-25T09:49:58.073Z,38.53
2023-05-25T09:50:58.302Z,38.49
2023-05-25T09:51:58.103Z,38.51
2023-05-25T09:53:01.305Z,38.53
2023-05-25T09:54:13.892Z,38.55
2023-05-25T09:54:59.058Z,38.54
2023-05-25T09:55:58.077Z,38.51
2023-05-25T09:56:58.781Z,38.51
2023-05-25T09:57:58.060Z,38.50
2023-05-25T09:58:58.306Z,38.51
2023-05-25T09:59:58.072Z,38.51
2023-05-25T10:00:58.119Z,38.50
2023-05-25T10:01:58.172Z,38.52
2023-05-25T10:02:59.370Z,38.52
2023-05-25T10:04:04.105Z,38.52
2023-05-25T10:04:58.615Z,38.50
2023-05-25T10:05:58.290Z,38.49
2023-05-25T10:06:58.155Z,38.57
2023-05-25T10:07:58.309Z,38.50
2023-05-25T10:08:58.154Z,38.48
2023-05-25T10:09:58.251Z,38.50
2023-05-25T10:11:05.500Z,38.51
2023-05-25T10:11:58.086Z,38.50
2023-05-25T10:12:58.055Z,38.49
2023-05-25T10:13:58.309Z,38.53
2023-05-25T10:14:58.023Z,38.49
2023-05-25T10:15:58.189Z,38.55
2023-05-25T10:16:58.039Z,38.50
2023-05-25T10:17:58.108Z,38.53
2023-05-25T10:18:58.295Z,38.51
2023-05-25T10:19:58.025Z,38.54
2023-05-25T10:20:58.723Z,38.55
2023-05-25T10:22:01.210Z,38.53
2023-05-25T10:22:58.016Z,38.49
2023-05-25T10:23:57.983Z,38.55
2023-05-25T10:24:58.290Z,38.53
2023-05-25T10:25:57.961Z,38.51
2023-05-25T10:26:57.962Z,38.48
2023-05-25T10:27:59.581Z,38.57
2023-05-25T10:28:58.781Z,38.49
2023-05-25T10:29:57.967Z,38.50
2023-05-25T10:30:58.270Z,38.49
2023-05-25T10:31:58.021Z,38.50
2023-05-25T10:32:58.982Z,38.50
2023-05-25T10:33:58.264Z,38.50
2023-05-25T10:34:57.927Z,38.51
2023-05-25T10:36:56.886Z,38.48
2023-05-25T10:37:57.870Z,38.49
2023-05-25T10:38:58.437Z,38.48
2023-05-25T10:39:57.939Z,38.47
2023-05-25T10:40:58.258Z,38.48
2023-05-25T10:41:57.862Z,38.47
2023-05-25T10:42:57.870Z,38.49
2023-05-25T10:43:58.255Z,38.50
2023-05-25T10:44:57.956Z,38.56
2023-05-25T10:45:57.997Z,38.49
2023-05-25T10:46:59.074Z,38.49
2023-05-25T10:47:58.186Z,38.51
2023-05-25T10:48:58.251Z,38.52
2023-05-25T10:49:58.274Z,38.49
2023-05-25T10:50:58.215Z,38.48
2023-05-25T10:51:58.225Z,38.49
2023-05-25T10:52:58.263Z,38.49
2023-05-25T10:53:58.301Z,38.43
2023-05-25T10:54:58.754Z,38.45
2023-05-25T10:55:58.764Z,38.44
2023-05-25T10:56:58.405Z,38.57
2023-05-25T10:57:58.450Z,38.45
2023-05-25T10:58:58.487Z,38.45
2023-05-25T10:59:59.256Z,38.43
2023-05-25T11:00:58.857Z,38.42
2023-05-25T11:01:58.650Z,38.50
2023-05-25T11:02:58.698Z,38.41
2023-05-25T11:03:58.661Z,38.39
2023-05-25T11:04:58.698Z,38.39
2023-05-25T11:06:01.987Z,38.41
2023-05-25T11:06:58.735Z,38.42
2023-05-25T11:07:58.730Z,38.41
2023-05-25T11:08:58.733Z,38.41
2023-05-25T11:09:58.779Z,38.43
2023-05-25T11:10:58.709Z,38.41
2023-05-25T11:11:58.733Z,38.41
2023-05-25T11:12:58.744Z,38.41
2023-05-25T11:13:58.763Z,38.41
2023-05-25T11:14:58.731Z,38.41
2023-05-25T11:15:58.741Z,38.41
2023-05-25T11:16:58.720Z,38.36
2023-05-25T11:17:58.719Z,38.38
2023-05-25T11:18:58.767Z,38.35
2023-05-25T11:19:58.752Z,38.35
2023-05-25T11:20:58.714Z,38.38
2023-05-25T11:21:58.731Z,38.40
2023-05-25T11:22:58.700Z,38.40
2023-05-25T11:23:58.727Z,38.40
2023-05-25T11:24:58.672Z,38.38
2023-05-25T11:25:58.672Z,38.41
2023-05-25T11:26:58.658Z,38.36
2023-05-25T11:27:58.656Z,38.37
2023-05-25T11:28:58.657Z,38.38
2023-05-25T11:29:58.645Z,38.37
2023-05-25T11:30:58.655Z,38.39
2023-05-25T11:31:58.809Z,38.38
2023-05-25T11:32:58.708Z,38.37
2023-05-25T11:33:58.637Z,38.37
2023-05-25T11:35:02.014Z,38.37
2023-05-25T11:35:58.611Z,38.37
2023-05-25T11:36:58.615Z,38.38
2023-05-25T11:37:58.654Z,38.36
2023-05-25T11:39:57.776Z,38.36
2023-05-25T11:40:58.600Z,38.37
2023-05-25T11:41:58.605Z,38.35
2023-05-25T11:42:59.277Z,38.36
2023-05-25T11:43:59.050Z,38.37
2023-05-25T11:44:58.593Z,38.36
2023-05-25T11:45:58.618Z,38.36
2023-05-25T11:46:58.632Z,38.36
2023-05-25T11:47:58.577Z,38.37
2023-05-25T11:48:58.567Z,38.38
2023-05-25T11:49:58.779Z,38.37
2023-05-25T11:50:58.548Z,38.37
2023-05-25T11:51:58.545Z,38.37
2023-05-25T11:52:58.548Z,38.38
2023-05-25T11:53:58.574Z,38.37
2023-05-25T11:54:58.526Z,38.38
2023-05-25T11:56:07.561Z,38.35
2023-05-25T11:56:58.512Z,38.38
2023-05-25T11:57:59.578Z,38.36
2023-05-25T11:58:58.555Z,38.37
2023-05-25T11:59:58.512Z,38.38
2023-05-25T12:00:58.513Z,38.44
2023-05-25T12:01:58.495Z,38.38
2023-05-25T12:02:58.560Z,38.40
2023-05-25T12:03:59.163Z,38.38
2023-05-25T12:04:58.585Z,38.42
2023-05-25T12:05:58.467Z,38.42
2023-05-25T12:06:58.506Z,38.37
2023-05-25T12:07:58.516Z,38.37
2023-05-25T12:08:58.782Z,38.37
2023-05-25T12:09:58.599Z,38.36
2023-05-25T12:10:58.675Z,38.38
2023-05-25T12:11:58.952Z,38.38
2023-05-25T12:12:58.650Z,38.38
2023-05-25T12:13:58.683Z,38.35
2023-05-25T12:14:59.140Z,38.41
2023-05-25T12:15:58.795Z,38.41
2023-05-25T12:16:57.958Z,38.38
2023-05-25T12:17:58.784Z,38.39
2023-05-25T12:18:58.747Z,38.43
2023-05-25T12:19:58.834Z,38.39
2023-05-25T12:20:58.770Z,38.38
2023-05-25T12:21:58.719Z,38.39
2023-05-25T12:22:58.714Z,38.37
2023-05-25T12:23:58.714Z,38.38
2023-05-25T12:24:58.791Z,38.37
2023-05-25T12:25:58.742Z,38.39
2023-05-25T12:26:58.730Z,38.39
2023-05-25T12:27:58.695Z,38.47
2023-05-25T12:28:58.693Z,38.39
2023-05-25T12:29:58.735Z,38.39
2023-05-25T12:30:58.721Z,38.46
2023-05-25T12:31:58.677Z,38.39
2023-05-25T12:33:00.969Z,38.49
2023-05-25T12:33:58.663Z,38.47
2023-05-25T12:34:58.695Z,38.49
2023-05-25T12:35:58.658Z,38.42
2023-05-25T12:36:58.651Z,38.41
2023-05-25T12:37:58.696Z,38.51
2023-05-25T12:38:58.628Z,38.39
2023-05-25T12:40:00.245Z,38.44
2023-05-25T12:40:58.629Z,38.57
2023-05-25T12:41:58.651Z,38.55
2023-05-25T12:42:58.675Z,38.55
2023-05-25T12:43:58.614Z,38.48
2023-05-25T12:44:58.796Z,38.47
2023-05-25T12:45:58.689Z,38.45
2023-05-25T12:46:58.896Z,38.44
2023-05-25T12:48:00.022Z,38.42
2023-05-25T12:48:58.595Z,38.44
2023-05-25T12:49:58.795Z,38.43
2023-05-25T12:50:58.595Z,38.44
2023-05-25T12:51:58.588Z,38.43
2023-05-25T12:52:58.586Z,38.42
2023-05-25T12:53:58.580Z,38.40
2023-05-25T12:54:58.574Z,38.51
2023-05-25T12:55:58.572Z,38.45
2023-05-25T12:56:58.828Z,38.43
2023-05-25T12:57:58.616Z,38.56
2023-05-25T12:58:58.562Z,38.53